createdAt,value
2018-06-27T00:00:09.258Z,15.17
2018-06-27T00:01:09.244Z,15.15
2018-06-27T00:02:09.251Z,15.13
2018-06-27T00:03:09.259Z,15.05
2018-06-27T00:04:09.233Z,15.05
2018-06-27T00:05:09.233Z,15.05
2018-06-27T00:06:09.245Z,15.01
2018-06-27T00:07:09.222Z,15.03
2018-06-27T00:08:09.209Z,14.94
2018-06-27T00:09:09.212Z,14.93
2018-06-27T00:10:09.214Z,14.90
2018-06-27T00:11:09.205Z,14.93
2018-06-27T00:12:09.199Z,14.88
2018-06-27T00:13:09.245Z,14.98
2018-06-27T00:14:09.194Z,14.91
2018-06-27T00:15:09.191Z,14.98
2018-06-27T00:16:09.191Z,14.90
2018-06-27T00:17:09.181Z,14.90
2018-06-27T00:18:09.189Z,14.86
2018-06-27T00:19:09.173Z,14.81
2018-06-27T00:20:09.167Z,14.84
2018-06-27T00:21:09.176Z,14.81
2018-06-27T00:22:09.158Z,14.84
2018-06-27T00:23:09.176Z,14.81
2018-06-27T00:24:09.150Z,14.86
2018-06-27T00:25:09.149Z,14.80
2018-06-27T00:26:09.173Z,14.81
2018-06-27T00:27:09.140Z,14.80
2018-06-27T00:28:09.155Z,14.83
2018-06-27T00:29:09.144Z,14.72
2018-06-27T00:30:09.131Z,14.71
2018-06-27T00:31:09.122Z,14.71
2018-06-27T00:32:09.116Z,14.69
2018-06-27T00:33:09.119Z,14.62
2018-06-27T00:34:09.110Z,14.64
2018-06-27T00:35:09.109Z,14.57
2018-06-27T00:36:09.103Z,14.56
2018-06-27T00:37:09.103Z,14.60
2018-06-27T00:38:09.094Z,14.53
2018-06-27T00:39:09.093Z,14.67
2018-06-27T00:40:09.084Z,14.50
2018-06-27T00:41:09.084Z,14.60
2018-06-27T00:42:09.090Z,14.43
2018-06-27T00:43:09.073Z,14.49
2018-06-27T00:44:09.070Z,14.44
2018-06-27T00:45:09.100Z,14.52
2018-06-27T00:46:09.062Z,14.42
2018-06-27T00:47:09.060Z,14.56
2018-06-27T00:48:09.051Z,14.50
2018-06-27T00:49:09.043Z,14.43
2018-06-27T00:50:09.047Z,14.35
2018-06-27T00:51:09.037Z,14.37
2018-06-27T00:52:09.051Z,14.25
2018-06-27T00:53:09.030Z,14.38
2018-06-27T00:54:09.018Z,14.38
2018-06-27T00:55:09.025Z,14.44
2018-06-27T00:56:09.015Z,14.29
2018-06-27T00:57:09.014Z,14.34
2018-06-27T00:58:09.004Z,14.29
2018-06-27T00:59:09.000Z,14.17
2018-06-27T01:00:09.008Z,14.28
2018-06-27T01:01:09.012Z,14.28
2018-06-27T01:02:09.013Z,14.20
2018-06-27T01:03:08.984Z,14.21
2018-06-27T01:04:08.980Z,14.14
2018-06-27T01:05:08.973Z,14.13
2018-06-27T01:06:08.971Z,14.14
2018-06-27T01:07:08.963Z,14.06
2018-06-27T01:08:08.968Z,14.07
2018-06-27T01:09:08.956Z,14.07
2018-06-27T01:10:08.954Z,14.06
2018-06-27T01:11:08.952Z,13.99
2018-06-27T01:12:08.941Z,14.09
2018-06-27T01:13:08.940Z,13.98
2018-06-27T01:14:08.937Z,13.99
2018-06-27T01:15:08.992Z,13.96
2018-06-27T01:16:08.925Z,13.99
2018-06-27T01:17:08.918Z,13.98
2018-06-27T01:18:08.923Z,14.07
2018-06-27T01:19:08.911Z,13.92
2018-06-27T01:20:08.923Z,14.02
2018-06-27T01:21:09.058Z,14.07
2018-06-27T01:22:08.899Z,14.12
2018-06-27T01:23:08.901Z,14.13
2018-06-27T01:24:08.890Z,14.13
2018-06-27T01:25:08.885Z,14.07
2018-06-27T01:26:08.882Z,14.06
2018-06-27T01:27:08.879Z,14.13
2018-06-27T01:28:08.875Z,14.01
2018-06-27T01:29:08.904Z,14.10
2018-06-27T01:30:08.864Z,14.12
2018-06-27T01:31:08.892Z,14.10
2018-06-27T02:04:01.678Z,13.96
2018-06-27T02:05:01.648Z,13.95
2018-06-27T02:06:01.657Z,13.95
2018-06-27T02:07:01.627Z,13.95
2018-06-27T02:08:01.614Z,14.02
2018-06-27T02:09:01.610Z,13.99
2018-06-27T02:10:01.624Z,13.92
2018-06-27T02:11:01.588Z,14.12
2018-06-27T02:12:01.576Z,14.02
2018-06-27T02:13:01.576Z,14.09
2018-06-27T02:14:01.585Z,13.96
2018-06-27T02:15:01.566Z,14.10
2018-06-27T02:16:01.557Z,14.01
2018-06-27T02:17:01.549Z,13.99
2018-06-27T02:18:01.549Z,13.96
2018-06-27T02:19:01.529Z,14.07
2018-06-27T02:20:01.529Z,14.07
2018-06-27T02:21:01.544Z,14.06
2018-06-27T02:22:01.521Z,14.17
2018-06-27T02:23:01.709Z,14.10
2018-06-27T02:24:01.549Z,14.14
2018-06-27T02:25:01.505Z,14.16
2018-06-27T02:26:01.498Z,14.12
2018-06-27T02:27:01.532Z,14.17
2018-06-27T02:28:01.483Z,14.14
2018-06-27T02:29:01.512Z,14.14
2018-06-27T02:30:01.488Z,14.12
2018-06-27T02:31:01.517Z,14.14
2018-06-27T02:32:01.473Z,14.13
2018-06-27T02:33:01.470Z,14.14
2018-06-27T02:34:01.465Z,14.20
2018-06-27T02:35:01.462Z,14.19
2018-06-27T02:36:01.459Z,14.19
2018-06-27T02:37:01.458Z,14.20
2018-06-27T02:38:01.445Z,14.21
2018-06-27T02:39:01.449Z,14.21
2018-06-27T02:40:01.440Z,14.28
2018-06-27T02:41:01.447Z,14.34
2018-06-27T02:42:01.426Z,14.27
2018-06-27T02:43:01.425Z,14.25
2018-06-27T02:44:01.423Z,14.24
2018-06-27T02:45:01.421Z,14.38
2018-06-27T02:46:01.410Z,14.17
2018-06-27T02:47:01.421Z,14.38
2018-06-27T02:48:01.396Z,14.25
2018-06-27T02:49:01.398Z,14.31
2018-06-27T02:50:01.394Z,14.24
2018-06-27T02:51:01.399Z,14.21
2018-06-27T02:52:01.382Z,14.28
2018-06-27T02:53:01.384Z,14.31
2018-06-27T02:54:01.378Z,14.24
2018-06-27T02:55:01.373Z,14.27
2018-06-27T02:56:01.371Z,14.37
2018-06-27T02:57:01.523Z,14.27
2018-06-27T02:58:01.390Z,14.29
2018-06-27T02:59:01.357Z,14.24
2018-06-27T03:00:01.560Z,14.28
2018-06-27T03:01:01.348Z,14.28
2018-06-27T03:02:01.346Z,14.28
2018-06-27T03:03:01.330Z,14.21
2018-06-27T03:04:01.335Z,14.38
2018-06-27T03:05:01.325Z,14.37
2018-06-27T03:06:01.334Z,14.35
2018-06-27T03:07:01.329Z,14.25
2018-06-27T03:08:01.330Z,14.24
2018-06-27T03:09:01.369Z,14.27
2018-06-27T03:10:01.318Z,14.31
2018-06-27T03:11:01.308Z,14.38
2018-06-27T03:12:01.311Z,14.37
2018-06-27T03:13:01.299Z,14.35
2018-06-27T03:14:01.296Z,14.38
2018-06-27T03:15:01.289Z,14.38
2018-06-27T03:16:01.312Z,14.38
2018-06-27T03:17:01.279Z,14.42
2018-06-27T03:18:01.275Z,14.37
2018-06-27T03:19:01.284Z,14.38
2018-06-27T03:20:01.277Z,14.38
2018-06-27T03:21:01.261Z,14.32
2018-06-27T03:22:01.261Z,14.38
2018-06-27T03:23:01.254Z,14.37
2018-06-27T03:24:01.250Z,14.35
2018-06-27T03:25:01.248Z,14.38
2018-06-27T03:26:01.245Z,14.34
2018-06-27T03:27:01.240Z,14.38
2018-06-27T03:28:01.234Z,14.39
2018-06-27T03:29:01.232Z,14.37
2018-06-27T03:30:01.229Z,14.39
2018-06-27T03:31:01.225Z,14.38
2018-06-27T03:32:01.220Z,14.24
2018-06-27T03:33:01.211Z,14.27
2018-06-27T03:34:01.210Z,14.27
2018-06-27T03:35:01.210Z,14.28
2018-06-27T03:36:01.210Z,14.31
2018-06-27T03:37:01.197Z,14.27
2018-06-27T03:38:01.193Z,14.37
2018-06-27T03:39:01.231Z,14.35
2018-06-27T03:40:01.197Z,14.35
2018-06-27T03:41:01.183Z,14.37
2018-06-27T03:42:01.185Z,14.44
2018-06-27T03:43:01.170Z,14.50
2018-06-27T03:44:01.168Z,14.49
2018-06-27T03:45:01.170Z,14.52
2018-06-27T03:46:01.161Z,14.49
2018-06-27T03:47:01.152Z,14.44
2018-06-27T03:48:01.150Z,14.54
2018-06-27T03:49:01.163Z,14.44
2018-06-27T03:50:01.141Z,14.49
2018-06-27T03:51:01.138Z,14.56
2018-06-27T03:52:01.137Z,14.56
2018-06-27T03:53:01.129Z,14.52
2018-06-27T03:54:01.135Z,14.52
2018-06-27T03:55:01.124Z,14.54
2018-06-27T03:56:01.118Z,14.52
2018-06-27T03:57:01.116Z,14.62
2018-06-27T03:58:01.111Z,14.61
2018-06-27T03:59:01.142Z,14.60
2018-06-27T04:00:01.122Z,14.65
2018-06-27T04:01:01.101Z,14.62
2018-06-27T04:02:01.114Z,14.68
2018-06-27T04:03:01.102Z,14.74
2018-06-27T04:04:01.088Z,14.65
2018-06-27T04:05:01.087Z,14.53
2018-06-27T04:06:01.141Z,14.64
2018-06-27T04:07:01.064Z,14.60
2018-06-27T04:08:01.072Z,14.54
2018-06-27T04:09:01.068Z,14.72
2018-06-27T04:10:01.068Z,14.71
2018-06-27T04:11:01.059Z,14.71
2018-06-27T04:12:01.057Z,14.75
2018-06-27T04:13:01.252Z,14.75
2018-06-27T04:14:01.049Z,14.81
2018-06-27T04:15:01.175Z,14.80
2018-06-27T04:16:01.068Z,14.91
2018-06-27T04:17:01.043Z,14.90
2018-06-27T04:18:01.055Z,14.99
2018-06-27T04:19:01.027Z,14.98
2018-06-27T04:20:01.080Z,15.03
2018-06-27T04:21:01.023Z,15.01
2018-06-27T04:22:01.048Z,14.94
2018-06-27T04:23:01.013Z,15.02
2018-06-27T04:24:01.039Z,15.06
2018-06-27T04:25:01.021Z,15.02
2018-06-27T04:26:00.994Z,14.99
2018-06-27T04:27:00.996Z,14.98
2018-06-27T04:28:00.991Z,15.17
2018-06-27T04:29:01.004Z,15.06
2018-06-27T04:30:01.010Z,15.09
2018-06-27T04:31:00.983Z,15.13
2018-06-27T04:32:00.980Z,15.05
2018-06-27T04:33:00.995Z,15.20
2018-06-27T04:34:00.979Z,15.20
2018-06-27T04:35:00.958Z,15.11
2018-06-27T04:36:00.985Z,15.15
2018-06-27T04:37:00.955Z,15.23
2018-06-27T04:38:00.989Z,15.33
2018-06-27T04:39:00.978Z,15.27
2018-06-27T04:40:00.987Z,15.35
2018-06-27T04:41:00.954Z,15.28
2018-06-27T04:42:00.943Z,15.35
2018-06-27T04:43:01.624Z,15.41
2018-06-27T04:44:00.939Z,15.39
2018-06-27T04:45:00.927Z,15.45
2018-06-27T04:46:00.929Z,15.39
2018-06-27T04:47:00.925Z,15.43
2018-06-27T04:48:00.926Z,15.45
2018-06-27T04:49:01.225Z,15.48
2018-06-27T04:50:00.950Z,15.59
2018-06-27T04:51:00.913Z,15.60
2018-06-27T04:52:01.027Z,15.57
2018-06-27T04:53:00.905Z,15.60
2018-06-27T04:54:00.915Z,15.56
2018-06-27T04:55:01.036Z,15.51
2018-06-27T04:56:00.894Z,15.43
2018-06-27T04:57:00.892Z,15.49
2018-06-27T04:58:00.893Z,15.59
2018-06-27T04:59:00.887Z,15.60
2018-06-27T05:00:00.884Z,15.63
2018-06-27T05:01:00.885Z,15.72
2018-06-27T05:02:00.924Z,15.57
2018-06-27T05:03:00.925Z,15.52
2018-06-27T05:04:00.863Z,15.63
2018-06-27T05:05:00.870Z,15.56
2018-06-27T05:06:00.867Z,15.64
2018-06-27T05:07:00.859Z,15.68
2018-06-27T05:08:00.890Z,15.66
2018-06-27T05:09:00.866Z,15.70
2018-06-27T05:10:00.848Z,15.61
2018-06-27T05:11:00.868Z,15.70
2018-06-27T05:12:00.851Z,15.66
2018-06-27T05:13:00.886Z,15.84
2018-06-27T05:14:00.824Z,15.85
2018-06-27T05:15:00.836Z,15.94
2018-06-27T05:16:00.864Z,15.84
2018-06-27T05:17:00.826Z,15.99
2018-06-27T05:18:00.836Z,15.97
2018-06-27T05:19:00.814Z,15.82
2018-06-27T05:20:00.815Z,15.84
2018-06-27T05:21:00.820Z,15.94
2018-06-27T05:22:00.811Z,16.06
2018-06-27T05:23:00.803Z,15.84
2018-06-27T05:24:00.869Z,16.00
2018-06-27T05:25:00.802Z,16.11
2018-06-27T05:26:00.796Z,16.11
2018-06-27T05:27:00.795Z,16.06
2018-06-27T05:28:00.803Z,16.04
2018-06-27T05:29:00.809Z,16.06
2018-06-27T05:30:00.789Z,16.12
2018-06-27T05:31:00.801Z,16.06
2018-06-27T05:32:00.792Z,16.20
2018-06-27T05:33:00.777Z,16.34
2018-06-27T05:34:00.791Z,16.44
2018-06-27T05:35:00.764Z,16.49
2018-06-27T05:36:00.797Z,16.49
2018-06-27T05:37:00.787Z,16.52
2018-06-27T05:38:00.770Z,16.45
2018-06-27T05:39:00.761Z,16.41
2018-06-27T05:40:00.761Z,16.33
2018-06-27T05:41:00.755Z,16.15
2018-06-27T05:42:00.756Z,16.35
2018-06-27T05:43:00.753Z,16.35
2018-06-27T05:44:00.745Z,16.31
2018-06-27T05:45:00.754Z,16.20
2018-06-27T05:46:00.747Z,16.35
2018-06-27T05:47:00.741Z,16.41
2018-06-27T05:48:00.735Z,16.58
2018-06-27T05:49:00.733Z,16.49
2018-06-27T05:50:00.728Z,16.50
2018-06-27T05:51:00.729Z,16.67
2018-06-27T05:52:00.724Z,16.50
2018-06-27T05:53:00.722Z,16.41
2018-06-27T05:54:00.717Z,16.55
2018-06-27T05:55:00.724Z,16.71
2018-06-27T05:56:00.736Z,16.78
2018-06-27T05:57:00.711Z,16.77
2018-06-27T05:58:00.740Z,16.70
2018-06-27T05:59:00.714Z,16.81
2018-06-27T06:00:00.707Z,16.77
2018-06-27T06:01:00.699Z,16.83
2018-06-27T06:02:00.704Z,16.95
2018-06-27T06:03:00.695Z,16.83
2018-06-27T06:04:00.698Z,16.75
2018-06-27T06:05:00.705Z,16.78
2018-06-27T06:06:00.692Z,16.88
2018-06-27T06:07:00.679Z,16.95
2018-06-27T06:08:00.682Z,17.03
2018-06-27T06:09:00.688Z,17.00
2018-06-27T06:10:00.733Z,17.20
2018-06-27T06:11:00.676Z,17.25
2018-06-27T06:12:00.667Z,17.38
2018-06-27T06:13:00.671Z,17.46
2018-06-27T06:14:00.770Z,17.25
2018-06-27T06:15:00.656Z,17.25
2018-06-27T06:16:00.658Z,17.40
2018-06-27T06:17:00.649Z,17.71
2018-06-27T06:18:00.657Z,17.69
2018-06-27T06:19:00.663Z,17.71
2018-06-27T06:20:00.665Z,17.69
2018-06-27T06:21:00.653Z,17.71
2018-06-27T06:22:00.655Z,17.74
2018-06-27T06:23:00.646Z,17.89
2018-06-27T06:24:00.650Z,17.91
2018-06-27T06:25:00.644Z,17.88
2018-06-27T06:26:00.643Z,18.04
2018-06-27T06:27:00.647Z,18.18
2018-06-27T06:28:00.637Z,18.04
2018-06-27T06:29:00.631Z,17.89
2018-06-27T06:30:00.632Z,18.02
2018-06-27T06:31:00.632Z,18.07
2018-06-27T06:32:00.694Z,17.88
2018-06-27T06:33:00.629Z,17.97
2018-06-27T06:34:00.629Z,17.99
2018-06-27T06:35:00.678Z,18.19
2018-06-27T06:36:00.624Z,18.21
2018-06-27T06:37:00.622Z,18.59
2018-06-27T06:38:00.618Z,18.62
2018-06-27T06:39:00.616Z,18.49
2018-06-27T06:40:00.606Z,18.50
2018-06-27T06:41:00.612Z,18.49
2018-06-27T06:42:00.610Z,18.59
2018-06-27T06:43:00.610Z,18.83
2018-06-27T06:44:00.611Z,18.92
2018-06-27T06:45:00.632Z,19.20
2018-06-27T06:46:00.715Z,19.11
2018-06-27T06:47:00.701Z,19.17
2018-06-27T06:48:00.608Z,18.94
2018-06-27T06:49:00.791Z,18.82
2018-06-27T06:50:00.598Z,19.01
2018-06-27T06:51:00.596Z,18.97
2018-06-27T06:52:00.600Z,18.80
2018-06-27T06:53:00.612Z,18.90
2018-06-27T06:54:00.597Z,18.95
2018-06-27T06:55:00.592Z,18.99
2018-06-27T06:56:00.590Z,19.42
2018-06-27T06:57:00.592Z,19.86
2018-06-27T06:58:00.585Z,20.13
2018-06-27T06:59:00.608Z,20.25
2018-06-27T07:00:00.585Z,20.43
2018-06-27T07:01:00.589Z,20.31
2018-06-27T07:02:00.583Z,20.12
2018-06-27T07:03:00.674Z,20.08
2018-06-27T07:04:00.580Z,20.64
2018-06-27T07:05:00.653Z,20.65
2018-06-27T07:06:00.586Z,21.24
2018-06-27T07:07:00.593Z,21.50
2018-06-27T07:08:00.597Z,21.60
2018-06-27T07:09:00.577Z,21.23
2018-06-27T07:10:00.604Z,20.76
2018-06-27T07:11:00.871Z,21.45
2018-06-27T07:12:00.590Z,21.60
2018-06-27T07:13:00.591Z,21.64
2018-06-27T07:14:00.597Z,21.98
2018-06-27T07:15:00.599Z,21.66
2018-06-27T07:16:00.615Z,22.13
2018-06-27T07:17:00.619Z,21.64
2018-06-27T07:18:00.628Z,21.88
2018-06-27T07:19:00.625Z,21.66
2018-06-27T07:20:00.632Z,21.79
2018-06-27T07:21:00.654Z,21.81
2018-06-27T07:22:00.651Z,21.61
2018-06-27T07:23:00.656Z,21.76
2018-06-27T07:24:00.667Z,21.79
2018-06-27T07:25:00.679Z,22.01
2018-06-27T07:26:00.678Z,21.61
2018-06-27T07:27:00.688Z,21.81
2018-06-27T07:28:00.701Z,22.49
2018-06-27T07:29:00.709Z,22.19
2018-06-27T07:30:00.761Z,22.25
2018-06-27T07:31:00.718Z,21.53
2018-06-27T07:32:00.787Z,21.81
2018-06-27T07:33:00.738Z,22.20
2018-06-27T07:34:00.743Z,22.16
2018-06-27T07:35:00.751Z,22.22
2018-06-27T07:36:00.876Z,22.52
2018-06-27T07:37:00.780Z,22.64
2018-06-27T07:38:00.800Z,23.02
2018-06-27T07:39:00.837Z,22.67
2018-06-27T07:40:00.887Z,22.23
2018-06-27T07:41:00.947Z,21.72
2018-06-27T07:42:00.829Z,22.25
2018-06-27T07:43:00.884Z,21.98
2018-06-27T07:44:00.854Z,22.92
2018-06-27T07:45:00.974Z,23.12
2018-06-27T07:46:00.913Z,23.72
2018-06-27T07:47:00.936Z,23.61
2018-06-27T07:48:00.893Z,23.61
2018-06-27T07:49:00.900Z,23.61
2018-06-27T07:50:00.911Z,23.46
2018-06-27T07:51:00.927Z,23.64
2018-06-27T07:52:00.936Z,23.68
2018-06-27T07:53:00.951Z,23.32
2018-06-27T07:54:00.958Z,23.80
2018-06-27T07:55:00.975Z,24.31
2018-06-27T07:56:00.979Z,24.01
2018-06-27T07:57:00.993Z,23.05
2018-06-27T07:58:01.011Z,23.62
2018-06-27T07:59:01.052Z,23.26
2018-06-27T08:00:01.021Z,23.22
2018-06-27T08:01:01.081Z,23.23
2018-06-27T08:02:01.075Z,23.85
2018-06-27T08:03:01.071Z,24.23
2018-06-27T08:04:01.081Z,23.32
2018-06-27T08:05:01.105Z,24.31
2018-06-27T08:06:01.115Z,23.14
2018-06-27T08:07:01.118Z,22.38
2018-06-27T08:08:01.129Z,23.22
2018-06-27T08:09:01.152Z,23.53
2018-06-27T08:10:01.178Z,24.08
2018-06-27T08:11:01.176Z,24.08
2018-06-27T08:12:01.199Z,24.16
2018-06-27T08:13:01.187Z,23.67
2018-06-27T08:14:01.204Z,23.45
2018-06-27T08:15:01.219Z,23.49
2018-06-27T08:16:01.227Z,23.50
2018-06-27T08:17:01.242Z,23.92
2018-06-27T08:18:01.393Z,24.32
2018-06-27T08:19:01.265Z,23.95
2018-06-27T08:20:01.401Z,23.55
2018-06-27T08:21:01.285Z,23.31
2018-06-27T08:22:01.730Z,23.43
2018-06-27T08:23:01.378Z,23.34
2018-06-27T08:24:01.329Z,23.22
2018-06-27T08:25:01.378Z,23.97
2018-06-27T08:26:01.429Z,24.42
2018-06-27T08:27:01.438Z,24.63
2018-06-27T08:28:01.386Z,24.88
2018-06-27T08:29:01.418Z,24.53
2018-06-27T08:30:01.506Z,24.53
2018-06-27T08:31:01.656Z,24.77
2018-06-27T08:32:01.446Z,24.20
2018-06-27T08:33:01.463Z,24.37
2018-06-27T08:34:01.503Z,24.32
2018-06-27T08:35:01.580Z,24.22
2018-06-27T08:36:01.523Z,23.53
2018-06-27T08:37:01.525Z,24.17
2018-06-27T08:38:01.554Z,24.29
2018-06-27T08:39:01.793Z,24.01
2018-06-27T08:40:01.907Z,24.37
2018-06-27T08:41:01.869Z,24.63
2018-06-27T08:42:01.609Z,24.59
2018-06-27T08:43:01.591Z,24.39
2018-06-27T08:44:01.608Z,24.64
2018-06-27T08:45:01.625Z,24.60
2018-06-27T08:46:01.631Z,24.95
2018-06-27T08:47:01.648Z,25.15
2018-06-27T08:48:01.659Z,24.75
2018-06-27T08:49:01.670Z,24.73
2018-06-27T08:50:01.730Z,25.09
2018-06-27T08:51:01.710Z,24.42
2018-06-27T08:52:01.722Z,23.64
2018-06-27T08:53:01.735Z,24.13
2018-06-27T08:54:01.751Z,24.49
2018-06-27T08:55:01.763Z,25.07
2018-06-27T08:56:01.780Z,25.82
2018-06-27T08:57:01.798Z,25.38
2018-06-27T08:58:01.822Z,25.27
2018-06-27T08:59:01.827Z,24.64
2018-06-27T09:00:01.839Z,24.37
2018-06-27T09:01:02.023Z,24.73
2018-06-27T09:02:01.882Z,24.73
2018-06-27T09:03:01.886Z,25.46
2018-06-27T09:04:01.889Z,25.86
2018-06-27T09:05:01.917Z,26.11
2018-06-27T09:06:01.935Z,26.39
2018-06-27T09:07:01.935Z,25.12
2018-06-27T09:08:01.950Z,25.09
2018-06-27T09:09:01.971Z,25.12
2018-06-27T09:10:01.988Z,24.83
2018-06-27T09:11:01.999Z,24.44
2018-06-27T09:12:02.015Z,24.76
2018-06-27T09:13:02.058Z,25.10
2018-06-27T09:14:02.044Z,24.88
2018-06-27T09:15:02.152Z,25.13
2018-06-27T09:16:02.064Z,25.19
2018-06-27T09:17:02.818Z,25.10
2018-06-27T09:18:02.107Z,25.09
2018-06-27T09:19:02.122Z,24.90
2018-06-27T09:20:02.148Z,25.43
2018-06-27T09:21:02.146Z,25.86
2018-06-27T09:22:02.194Z,24.85
2018-06-27T09:23:02.195Z,24.71
2018-06-27T09:24:02.227Z,24.44
2018-06-27T09:25:02.207Z,24.68
2018-06-27T09:26:02.225Z,24.85
2018-06-27T09:27:02.248Z,24.67
2018-06-27T09:28:02.439Z,25.09
2018-06-27T09:29:02.265Z,25.34
2018-06-27T09:30:02.283Z,25.86
2018-06-27T09:31:02.299Z,25.79
2018-06-27T09:32:02.337Z,25.56
2018-06-27T09:33:02.324Z,25.68
2018-06-27T09:34:02.391Z,25.69
2018-06-27T09:35:02.351Z,25.61
2018-06-27T09:36:02.369Z,25.42
2018-06-27T09:37:02.383Z,23.83
2018-06-27T09:38:02.392Z,24.54
2018-06-27T09:39:02.466Z,24.31
2018-06-27T09:40:02.421Z,24.32
2018-06-27T09:41:02.440Z,24.61
2018-06-27T09:42:02.482Z,24.44
2018-06-27T09:43:02.469Z,23.04
2018-06-27T09:44:02.481Z,23.46
2018-06-27T09:45:02.541Z,24.32
2018-06-27T09:46:02.500Z,23.79
2018-06-27T09:47:02.518Z,24.56
2018-06-27T09:48:02.547Z,24.27
2018-06-27T09:49:02.541Z,24.83
2018-06-27T09:50:02.554Z,24.83
2018-06-27T09:51:02.574Z,25.24
2018-06-27T09:52:02.582Z,24.04
2018-06-27T09:53:02.601Z,25.17
2018-06-27T09:54:02.607Z,25.38
2018-06-27T09:55:02.619Z,26.15
2018-06-27T09:56:02.633Z,26.47
2018-06-27T09:57:02.705Z,26.64
2018-06-27T09:58:02.658Z,26.44
2018-06-27T09:59:02.665Z,26.73
2018-06-27T10:00:02.686Z,26.74
2018-06-27T10:01:02.712Z,27.46
2018-06-27T10:02:02.736Z,26.76
2018-06-27T10:03:02.728Z,26.72
2018-06-27T10:04:02.745Z,26.57
2018-06-27T10:05:02.767Z,26.61
2018-06-27T10:06:02.773Z,26.61
2018-06-27T10:07:02.787Z,27.95
2018-06-27T10:08:02.889Z,27.46
2018-06-27T10:09:02.823Z,26.91
2018-06-27T10:10:02.831Z,26.22
2018-06-27T10:11:02.856Z,26.36
2018-06-27T10:12:02.863Z,26.47
2018-06-27T10:13:02.868Z,27.06
2018-06-27T10:14:02.916Z,27.31
2018-06-27T10:15:02.965Z,27.33
2018-06-27T10:16:02.929Z,27.32
2018-06-27T10:17:03.033Z,26.98
2018-06-27T10:18:02.961Z,27.69
2018-06-27T10:19:02.974Z,27.35
2018-06-27T10:20:02.995Z,26.80
2018-06-27T10:21:03.001Z,26.73
2018-06-27T10:22:03.026Z,26.55
2018-06-27T10:23:03.033Z,27.20
2018-06-27T10:24:03.068Z,27.48
2018-06-27T10:25:03.112Z,28.17
2018-06-27T10:26:03.088Z,28.88
2018-06-27T10:27:03.109Z,28.48
2018-06-27T10:28:03.121Z,28.66
2018-06-27T10:29:03.134Z,28.32
2018-06-27T10:30:03.152Z,27.36
2018-06-27T10:31:03.217Z,26.86
2018-06-27T10:32:03.183Z,26.92
2018-06-27T10:33:03.205Z,26.46
2018-06-27T10:34:03.222Z,25.59
2018-06-27T10:35:03.252Z,25.50
2018-06-27T10:36:03.255Z,24.71
2018-06-27T10:37:03.274Z,24.53
2018-06-27T10:38:03.279Z,24.17
2018-06-27T10:39:03.321Z,23.72
2018-06-27T10:40:03.373Z,24.04
2018-06-27T10:41:03.322Z,23.32
2018-06-27T10:42:03.336Z,22.86
2018-06-27T10:43:03.470Z,22.67
2018-06-27T10:44:03.384Z,22.49
2018-06-27T10:45:03.371Z,22.20
2018-06-27T10:46:03.405Z,21.74
2018-06-27T10:47:03.385Z,21.82
2018-06-27T10:48:03.392Z,21.97
2018-06-27T10:49:03.397Z,23.34
2018-06-27T10:50:03.409Z,24.56
2018-06-27T10:51:03.418Z,25.30
2018-06-27T10:52:03.422Z,24.83
2018-06-27T10:53:03.426Z,24.22
2018-06-27T10:54:03.445Z,24.24
2018-06-27T10:55:03.441Z,23.27
2018-06-27T10:56:03.452Z,24.47
2018-06-27T10:57:03.472Z,25.16
2018-06-27T10:58:03.473Z,25.50
2018-06-27T10:59:03.483Z,25.90
2018-06-27T11:00:03.492Z,26.18
2018-06-27T11:01:03.539Z,26.62
2018-06-27T11:02:03.510Z,27.36
2018-06-27T11:03:03.517Z,27.46
2018-06-27T11:04:03.531Z,27.04
2018-06-27T11:05:03.544Z,26.76
2018-06-27T11:06:03.554Z,26.46
2018-06-27T11:07:03.566Z,26.98
2018-06-27T11:08:03.597Z,26.94
2018-06-27T11:09:03.590Z,27.58
2018-06-27T11:10:03.601Z,28.13
2018-06-27T11:11:03.646Z,27.88
2018-06-27T11:12:03.629Z,27.10
2018-06-27T11:13:03.647Z,25.17
2018-06-27T11:14:03.657Z,24.37
2018-06-27T11:15:03.667Z,24.17
2018-06-27T11:16:03.688Z,23.95
2018-06-27T11:17:03.700Z,24.79
2018-06-27T11:18:03.711Z,25.72
2018-06-27T11:19:03.723Z,26.21
2018-06-27T11:20:03.752Z,26.59
2018-06-27T11:21:03.842Z,26.65
2018-06-27T11:22:03.761Z,26.46
2018-06-27T11:23:03.969Z,26.20
2018-06-27T11:24:03.783Z,26.91
2018-06-27T11:25:03.798Z,27.23
2018-06-27T11:26:03.805Z,26.68
2018-06-27T11:27:03.875Z,26.50
2018-06-27T11:28:03.855Z,26.69
2018-06-27T11:29:03.836Z,25.68
2018-06-27T11:30:03.875Z,24.79
2018-06-27T11:31:03.863Z,24.41
2018-06-27T11:32:03.872Z,23.79
2018-06-27T11:33:03.981Z,23.57
2018-06-27T11:34:04.159Z,23.24
2018-06-27T11:35:04.080Z,23.07
2018-06-27T11:36:03.903Z,23.32
2018-06-27T11:37:03.928Z,23.01
2018-06-27T11:38:03.948Z,22.93
2018-06-27T11:39:03.929Z,22.92
2018-06-27T11:40:03.975Z,23.04
2018-06-27T11:41:03.969Z,22.87
2018-06-27T11:42:03.945Z,22.84
2018-06-27T11:43:04.042Z,22.84
2018-06-27T11:44:03.997Z,22.86
2018-06-27T11:45:03.973Z,22.82
2018-06-27T11:46:03.972Z,23.01
2018-06-27T11:47:03.980Z,22.86
2018-06-27T11:48:03.992Z,22.84
2018-06-27T11:49:04.042Z,22.74
2018-06-27T11:50:04.006Z,22.67
2018-06-27T11:51:03.994Z,22.97
2018-06-27T11:52:04.002Z,23.53
2018-06-27T11:53:04.101Z,24.05
2018-06-27T11:54:04.011Z,24.61
2018-06-27T11:55:04.015Z,24.68
2018-06-27T11:56:04.023Z,24.20
2018-06-27T11:57:04.030Z,24.41
2018-06-27T11:58:04.031Z,24.45
2018-06-27T11:59:04.062Z,25.15
2018-06-27T12:00:04.047Z,25.57
2018-06-27T12:01:04.059Z,25.62
2018-06-27T12:02:04.047Z,25.97
2018-06-27T12:03:04.092Z,26.64
2018-06-27T12:04:04.079Z,26.61
2018-06-27T12:05:04.075Z,26.12
2018-06-27T12:06:04.100Z,26.73
2018-06-27T12:07:04.103Z,27.43
2018-06-27T12:08:04.114Z,27.14
2018-06-27T12:09:04.120Z,25.59
2018-06-27T12:10:04.153Z,25.47
2018-06-27T12:11:04.141Z,25.17
2018-06-27T12:12:04.152Z,25.20
2018-06-27T12:13:04.164Z,25.13
2018-06-27T12:14:04.170Z,24.88
2018-06-27T12:15:04.196Z,24.80
2018-06-27T12:16:04.193Z,24.39
2018-06-27T12:17:04.212Z,24.59
2018-06-27T12:18:04.207Z,24.57
2018-06-27T12:19:04.211Z,24.20
2018-06-27T12:20:04.232Z,24.10
2018-06-27T12:21:04.241Z,24.54
2018-06-27T12:22:04.244Z,24.44
2018-06-27T12:23:04.251Z,24.26
2018-06-27T12:24:04.283Z,24.27
2018-06-27T12:25:04.276Z,24.41
2018-06-27T12:26:04.269Z,24.34
2018-06-27T12:27:04.292Z,23.68
2018-06-27T12:28:04.331Z,23.67
2018-06-27T12:29:04.291Z,23.72
2018-06-27T12:30:04.305Z,23.95
2018-06-27T12:31:04.310Z,23.89
2018-06-27T12:32:04.313Z,23.70
2018-06-27T12:33:04.321Z,23.92
2018-06-27T12:34:04.323Z,24.26
2018-06-27T12:35:04.347Z,24.05
2018-06-27T12:36:04.362Z,23.70
2018-06-27T12:37:04.345Z,23.79
2018-06-27T12:38:04.356Z,23.39
2018-06-27T12:39:04.356Z,23.32
2018-06-27T12:40:04.356Z,23.43
2018-06-27T12:41:04.368Z,23.35
2018-06-27T12:42:04.377Z,23.20
2018-06-27T12:43:04.464Z,23.45
2018-06-27T12:44:04.533Z,22.90
2018-06-27T12:45:04.408Z,23.09
2018-06-27T12:46:04.394Z,23.19
2018-06-27T12:47:04.398Z,23.42
2018-06-27T12:48:04.407Z,23.32
2018-06-27T12:49:04.414Z,23.32
2018-06-27T12:50:04.514Z,23.53
2018-06-27T12:51:04.420Z,23.17
2018-06-27T12:52:04.423Z,23.58
2018-06-27T12:53:04.421Z,23.57
2018-06-27T12:54:04.432Z,23.97
2018-06-27T12:55:04.436Z,24.59
2018-06-27T12:56:04.441Z,24.71
2018-06-27T12:57:04.443Z,24.47
2018-06-27T12:58:04.453Z,23.64
2018-06-27T12:59:04.452Z,23.49
2018-06-27T13:00:04.491Z,23.57
2018-06-27T13:01:04.463Z,23.55
2018-06-27T13:02:04.469Z,23.50
2018-06-27T13:03:04.474Z,23.50
2018-06-27T13:04:04.476Z,23.11
2018-06-27T13:05:04.485Z,23.01
2018-06-27T13:06:04.492Z,23.12
2018-06-27T13:07:04.547Z,23.11
2018-06-27T13:08:04.488Z,23.04
2018-06-27T13:09:04.758Z,23.14
2018-06-27T13:10:04.502Z,23.11
2018-06-27T13:11:04.507Z,23.02
2018-06-27T13:12:04.529Z,22.90
2018-06-27T13:13:04.525Z,22.94
2018-06-27T13:14:04.527Z,22.87
2018-06-27T13:15:04.516Z,22.86
2018-06-27T13:16:04.529Z,22.53
2018-06-27T13:17:04.530Z,22.67
2018-06-27T13:18:04.541Z,22.37
2018-06-27T13:19:04.537Z,22.57
2018-06-27T13:20:04.583Z,22.93
2018-06-27T13:21:04.547Z,22.69
2018-06-27T13:22:04.576Z,22.53
2018-06-27T13:23:04.579Z,22.59
2018-06-27T13:24:04.584Z,22.37